Time;durP1;ratioP1;P1;durP2;ratioP2;P2;SDS_P1;SDS_P2;PMS_P1;PMS_P2;Temp;Humidity;BMP_temperature;BMP_pressure;BME280_temperature;BME280_humidity;BME280_pressure;Samples;Min_cycle;Max_cycle;Signal;HPM_P1;HPM_P2
2024/04/11 00:01:15;;;;;;;4.90;1.87;;;19.90;57.20;;;;;;5450550;26;20236;-79
2024/04/11 00:03:45;;;;;;;6.03;1.97;;;20.10;56.40;;;;;;5451310;26;20232;-76
2024/04/11 00:06:13;;;;;;;3.70;1.63;;;20.20;56.50;;;;;;5437164;26;20286;-75
2024/04/11 00:08:40;;;;;;;3.80;2.23;;;20.30;56.00;;;;;;5443584;26;20336;-73
2024/04/11 00:11:08;;;;;;;2.27;1.70;;;20.30;55.30;;;;;;5445368;26;20228;-74
2024/04/11 00:13:35;;;;;;;3.73;1.57;;;20.40;55.00;;;;;;5444808;26;20283;-74
2024/04/11 00:16:04;;;;;;;4.77;1.93;;;20.60;55.50;;;;;;5450912;26;20275;-72
2024/04/11 00:18:35;;;;;;;4.50;1.70;;;20.70;55.30;;;;;;5443998;26;20330;-73
2024/04/11 00:21:02;;;;;;;2.27;1.37;;;20.70;54.80;;;;;;5447962;26;20273;-71
2024/04/11 00:23:29;;;;;;;4.20;1.77;;;20.60;53.80;;;;;;5433218;26;20752;-72
2024/04/11 00:25:58;;;;;;;3.83;1.93;;;20.60;53.90;;;;;;5442491;26;20229;-73
2024/04/11 00:28:34;;;;;;;2.47;1.50;;;21.00;53.80;;;;;;5446553;26;20266;-74
2024/04/11 00:31:02;;;;;;;2.00;1.50;;;21.30;53.50;;;;;;5447572;26;20223;-74
2024/04/11 00:33:29;;;;;;;3.47;1.43;;;21.30;53.10;;;;;;5440991;26;20240;-74
2024/04/11 00:35:59;;;;;;;6.57;1.80;;;21.30;53.30;;;;;;5446830;26;20236;-72
2024/04/11 00:38:27;;;;;;;4.93;1.90;;;21.30;52.90;;;;;;5443434;26;20239;-73
2024/04/11 00:40:56;;;;;;;3.83;1.50;;;21.30;53.00;;;;;;5449107;26;20236;-73
2024/04/11 00:43:24;;;;;;;7.60;1.20;;;21.40;52.40;;;;;;5452297;26;20365;-75
2024/04/11 00:45:52;;;;;;;2.70;1.60;;;21.50;52.60;;;;;;5446537;26;20286;-71
2024/04/11 00:48:21;;;;;;;1.80;1.17;;;21.80;52.40;;;;;;5453181;26;21459;-75
2024/04/11 00:50:50;;;;;;;3.40;1.37;;;21.90;51.90;;;;;;5453101;26;20737;-75
2024/04/11 00:53:19;;;;;;;3.33;1.40;;;21.90;51.60;;;;;;5436393;26;20270;-75
2024/04/11 00:55:47;;;;;;;1.97;1.10;;;22.00;51.50;;;;;;5444737;26;20631;-73
2024/04/11 00:58:15;;;;;;;4.73;1.37;;;22.20;51.80;;;;;;5449122;26;20294;-73
2024/04/11 01:00:42;;;;;;;2.20;0.90;;;22.30;50.90;;;;;;5447441;26;20232;-75
2024/04/11 01:03:10;;;;;;;3.60;1.10;;;22.20;50.90;;;;;;5442512;26;20352;-75
2024/04/11 01:05:37;;;;;;;3.73;1.60;;;21.90;50.60;;;;;;5447675;26;20233;-79
2024/04/11 01:08:08;;;;;;;4.20;1.20;;;21.90;51.00;;;;;;5436826;26;20322;-72
2024/04/11 01:10:37;;;;;;;2.40;1.50;;;22.00;50.80;;;;;;5453717;26;20244;-74
2024/04/11 01:13:05;;;;;;;6.17;1.60;;;22.00;51.10;;;;;;5474122;26;20738;-73
2024/04/11 01:15:39;;;;;;;3.93;1.30;;;22.00;51.00;;;;;;5440222;26;20241;-77
2024/04/11 01:18:07;;;;;;;2.47;1.40;;;22.00;51.10;;;;;;5443577;26;20274;-76
2024/04/11 01:20:34;;;;;;;3.60;1.60;;;22.00;51.70;;;;;;5443921;26;20238;-74
2024/04/11 01:23:07;;;;;;;2.53;1.43;;;22.10;52.10;;;;;;5441249;26;20280;-76
2024/04/11 01:25:35;;;;;;;2.83;1.13;;;21.90;51.70;;;;;;5444191;26;20551;-74
2024/04/11 01:28:02;;;;;;;6.80;1.40;;;22.20;51.40;;;;;;5437500;26;20242;-77
2024/04/11 01:30:30;;;;;;;3.13;1.33;;;22.30;51.30;;;;;;5440857;26;20304;-74
2024/04/11 01:33:09;;;;;;;4.43;1.40;;;22.50;51.00;;;;;;5439809;26;20276;-71
2024/04/11 01:35:37;;;;;;;7.57;1.80;;;22.40;50.90;;;;;;5443963;26;20232;-75
2024/04/11 01:38:05;;;;;;;2.00;1.23;;;22.70;51.30;;;;;;5435302;26;20283;-75
2024/04/11 01:40:41;;;;;;;3.27;1.17;;;22.60;51.10;;;;;;5429102;26;20739;-75
2024/04/11 01:43:09;;;;;;;2.73;1.17;;;22.70;50.80;;;;;;5443242;26;20231;-72
2024/04/11 01:45:39;;;;;;;4.77;1.60;;;22.80;50.20;;;;;;5439718;26;20582;-73
2024/04/11 01:48:08;;;;;;;2.27;1.30;;;22.60;50.60;;;;;;5442736;26;20232;-75
2024/04/11 01:50:41;;;;;;;5.23;1.47;;;22.60;51.20;;;;;;5434085;26;20297;-74
2024/04/11 01:53:09;;;;;;;2.73;1.43;;;22.80;50.50;;;;;;5443775;26;20237;-72
2024/04/11 01:55:36;;;;;;;4.57;1.40;;;23.00;49.60;;;;;;5443022;26;20299;-73
2024/04/11 01:58:04;;;;;;;4.07;1.40;;;22.90;49.70;;;;;;5437898;26;20411;-73
2024/04/11 02:00:37;;;;;;;6.87;1.60;;;22.80;50.20;;;;;;5447542;26;20315;-74
2024/04/11 02:03:05;;;;;;;4.57;1.43;;;22.70;50.50;;;;;;5445710;26;20293;-73
2024/04/11 02:05:34;;;;;;;4.77;1.60;;;22.60;50.10;;;;;;5453319;26;20593;-76
2024/04/11 02:08:06;;;;;;;4.80;1.67;;;22.50;50.70;;;;;;5449171;26;20332;-73
2024/04/11 02:10:33;;;;;;;3.73;1.73;;;22.40;49.80;;;;;;5437102;26;20638;-75
2024/04/11 02:13:00;;;;;;;3.57;1.27;;;22.30;50.70;;;;;;5447580;26;20287;-74
2024/04/11 02:15:28;;;;;;;6.90;1.73;;;22.20;51.60;;;;;;5432177;26;20236;-76
2024/04/11 02:17:55;;;;;;;3.93;1.53;;;22.00;52.30;;;;;;5437630;26;20237;-75
2024/04/11 02:20:24;;;;;;;3.37;1.37;;;21.90;50.90;;;;;;5432614;26;20240;-74
2024/04/11 02:22:53;;;;;;;3.23;1.40;;;21.80;51.50;;;;;;5453657;26;20722;-74
2024/04/11 02:25:21;;;;;;;7.43;1.50;;;21.60;51.60;;;;;;5453999;26;20232;-76
2024/04/11 02:27:48;;;;;;;5.30;1.20;;;22.20;50.60;;;;;;5448083;26;20224;-77
2024/04/11 02:30:16;;;;;;;3.03;1.20;;;23.00;48.80;;;;;;5454148;26;20243;-75
2024/04/11 02:32:43;;;;;;;3.90;1.37;;;23.40;47.40;;;;;;5453793;26;20275;-74
2024/04/11 02:35:11;;;;;;;2.77;1.30;;;23.80;46.70;;;;;;5453577;26;20753;-76
2024/04/11 02:37:39;;;;;;;4.17;1.60;;;23.80;47.30;;;;;;5454448;26;20349;-75
2024/04/11 02:40:07;;;;;;;2.93;1.70;;;23.80;47.70;;;;;;5453840;26;20228;-76
2024/04/11 02:42:38;;;;;;;4.43;1.40;;;24.20;47.50;;;;;;5452762;26;20572;-75
2024/04/11 02:45:12;;;;;;;5.30;1.53;;;23.80;47.90;;;;;;5452976;26;20289;-73
2024/04/11 02:47:41;;;;;;;8.00;2.10;;;23.80;47.60;;;;;;5451394;26;20266;-74
2024/04/11 02:50:15;;;;;;;3.67;1.60;;;23.70;47.70;;;;;;5445295;26;20838;-77
2024/04/11 02:52:43;;;;;;;7.63;2.07;;;24.30;46.90;;;;;;5452813;26;20232;-75
2024/04/11 02:55:14;;;;;;;6.03;1.73;;;24.30;47.20;;;;;;5452465;26;20304;-77
2024/04/11 02:57:43;;;;;;;5.70;1.83;;;24.20;47.20;;;;;;5450957;26;20232;-72
2024/04/11 03:00:11;;;;;;;9.03;2.40;;;24.50;47.60;;;;;;5451400;26;20571;-76
2024/04/11 03:02:38;;;;;;;4.67;1.90;;;24.70;47.50;;;;;;5450841;26;20255;-75
2024/04/11 03:05:06;;;;;;;6.03;2.20;;;24.60;47.50;;;;;;5452446;26;20240;-75
2024/04/11 03:07:34;;;;;;;7.30;1.90;;;24.70;46.90;;;;;;5448623;26;20240;-75
2024/04/11 03:10:02;;;;;;;6.87;1.80;;;24.60;47.10;;;;;;5452578;26;20815;-75
2024/04/11 03:12:29;;;;;;;3.43;1.83;;;24.40;47.90;;;;;;5452436;26;20336;-73
2024/04/11 03:14:57;;;;;;;6.03;1.73;;;24.40;47.60;;;;;;5452474;26;20228;-75
2024/04/11 03:17:24;;;;;;;5.40;1.60;;;24.50;47.60;;;;;;5451446;26;20312;-74
2024/04/11 03:19:51;;;;;;;6.73;1.80;;;24.70;46.30;;;;;;5447890;26;20233;-76
2024/04/11 03:22:20;;;;;;;3.37;1.73;;;24.80;45.40;;;;;;5451731;26;20574;-75
2024/04/11 03:24:47;;;;;;;5.27;1.30;;;24.80;46.20;;;;;;5442796;26;20241;-74
2024/04/11 03:27:14;;;;;;;5.80;1.53;;;25.00;45.80;;;;;;5451073;26;20676;-74
2024/04/11 03:29:45;;;;;;;6.03;1.97;;;25.20;45.80;;;;;;5435743;26;20237;-74
2024/04/11 03:32:13;;;;;;;6.07;1.70;;;24.70;46.00;;;;;;5444221;26;20873;-73
2024/04/11 03:34:40;;;;;;;3.47;1.50;;;24.40;46.50;;;;;;5441710;26;20241;-73
2024/04/11 03:37:09;;;;;;;4.17;2.40;;;24.20;46.70;;;;;;5439681;26;20278;-74
2024/04/11 03:39:38;;;;;;;5.57;1.70;;;23.80;46.60;;;;;;5442032;26;20345;-75
2024/04/11 03:42:07;;;;;;;6.30;1.83;;;24.00;47.40;;;;;;5436339;26;20301;-72
2024/04/11 03:44:35;;;;;;;7.17;1.67;;;24.60;46.30;;;;;;5445074;26;20240;-72
2024/04/11 03:47:05;;;;;;;5.13;1.90;;;24.70;45.80;;;;;;5442328;26;20283;-72
2024/04/11 03:49:32;;;;;;;3.50;1.70;;;25.00;45.30;;;;;;5441866;26;20308;-78
2024/04/11 03:51:59;;;;;;;4.27;1.87;;;25.30;44.80;;;;;;5431544;26;20240;-74
2024/04/11 03:54:30;;;;;;;3.70;1.60;;;25.00;45.10;;;;;;5441988;26;20274;-74
2024/04/11 03:56:58;;;;;;;5.57;1.50;;;24.90;45.70;;;;;;5432271;26;20232;-75
2024/04/11 03:59:26;;;;;;;2.90;1.43;;;25.10;45.00;;;;;;5433869;26;20348;-74
2024/04/11 04:01:54;;;;;;;4.57;1.57;;;25.20;44.70;;;;;;5436346;26;24185;-74
2024/04/11 04:04:21;;;;;;;5.67;1.40;;;25.00;45.20;;;;;;5446394;26;20232;-75
2024/04/11 04:06:49;;;;;;;3.87;1.60;;;25.30;45.00;;;;;;5440927;26;20232;-72
2024/04/11 04:09:16;;;;;;;6.57;2.10;;;25.30;45.00;;;;;;5440327;26;20282;-75
2024/04/11 04:11:43;;;;;;;5.13;1.57;;;25.30;45.00;;;;;;5434365;26;20244;-73
2024/04/11 04:14:13;;;;;;;4.10;1.50;;;25.50;45.20;;;;;;5434475;26;20240;-73
2024/04/11 04:16:41;;;;;;;5.27;2.23;;;25.30;44.90;;;;;;5436636;26;20236;-74
2024/04/11 04:19:08;;;;;;;3.70;1.50;;;25.50;45.10;;;;;;5443248;26;20232;-72
2024/04/11 04:21:36;;;;;;;6.53;1.53;;;25.70;44.70;;;;;;5443438;26;20232;-74
2024/04/11 04:24:05;;;;;;;2.93;1.27;;;26.10;44.50;;;;;;5443030;26;20235;-73
2024/04/11 04:26:32;;;;;;;4.70;1.53;;;25.80;43.80;;;;;;5440775;26;20252;-74
2024/04/11 04:29:00;;;;;;;6.83;1.80;;;25.60;44.50;;;;;;5434988;26;20244;-75
2024/04/11 04:31:33;;;;;;;7.63;2.03;;;26.30;43.10;;;;;;5438324;26;20237;-73
2024/04/11 04:34:03;;;;;;;8.57;1.90;;;26.50;42.80;;;;;;5439411;26;20232;-74
2024/04/11 04:36:40;;;;;;;11.00;2.33;;;26.00;44.00;;;;;;5444289;26;20279;-73
2024/04/11 04:39:07;;;;;;;2.63;1.40;;;25.90;44.20;;;;;;5438319;26;20672;-75
2024/04/11 04:41:35;;;;;;;8.33;1.97;;;25.90;44.00;;;;;;5435202;26;20256;-76
2024/04/11 04:44:03;;;;;;;4.77;1.40;;;25.50;45.60;;;;;;5441469;26;20239;-75
2024/04/11 04:46:34;;;;;;;5.33;1.43;;;26.00;44.30;;;;;;5446095;26;20240;-72
2024/04/11 04:49:11;;;;;;;6.83;2.00;;;25.90;43.50;;;;;;5435951;26;20332;-75
2024/04/11 04:51:39;;;;;;;6.57;1.57;;;26.00;44.50;;;;;;5432773;26;20856;-74
2024/04/11 04:54:10;;;;;;;7.07;1.90;;;27.00;42.80;;;;;;5431642;26;20337;-73
2024/04/11 04:56:41;;;;;;;3.77;1.43;;;26.80;42.70;;;;;;5446370;26;20303;-72
2024/04/11 04:59:08;;;;;;;6.03;1.67;;;26.70;43.10;;;;;;5447795;26;20229;-74
2024/04/11 05:01:36;;;;;;;4.83;1.67;;;26.40;42.50;;;;;;5442495;26;20665;-74
2024/04/11 05:04:05;;;;;;;4.33;1.80;;;26.30;42.00;;;;;;5436285;26;20823;-72
2024/04/11 05:06:32;;;;;;;7.13;1.80;;;25.80;43.00;;;;;;5438439;26;20243;-74
2024/04/11 05:09:00;;;;;;;4.13;1.60;;;25.60;43.70;;;;;;5430050;26;20711;-74
2024/04/11 05:11:31;;;;;;;11.23;2.03;;;25.30;45.10;;;;;;5443148;26;20270;-72
2024/04/11 05:13:59;;;;;;;4.60;1.57;;;26.00;44.40;;;;;;5439056;26;20235;-73
2024/04/11 05:16:26;;;;;;;6.70;1.90;;;26.30;42.60;;;;;;5435124;26;20782;-74
2024/04/11 05:18:54;;;;;;;5.30;1.93;;;25.70;45.00;;;;;;5445069;26;20350;-74
2024/04/11 05:21:24;;;;;;;4.30;1.60;;;25.80;44.10;;;;;;5449757;26;20235;-73
2024/04/11 05:23:53;;;;;;;5.23;1.80;;;26.20;44.00;;;;;;5437625;26;20320;-72
2024/04/11 05:26:24;;;;;;;6.40;1.73;;;25.60;44.50;;;;;;5438167;26;20237;-72
2024/04/11 05:28:52;;;;;;;5.37;1.60;;;25.80;44.80;;;;;;5442572;26;20228;-74
2024/04/11 05:31:26;;;;;;;2.70;1.40;;;26.40;43.50;;;;;;5443673;26;20307;-74
2024/04/11 05:33:55;;;;;;;4.37;1.60;;;26.30;43.20;;;;;;5447105;26;20239;-72
2024/04/11 05:36:25;;;;;;;6.97;2.33;;;26.30;43.20;;;;;;5451122;26;20317;-75
2024/04/11 05:38:53;;;;;;;5.00;2.10;;;26.00;44.90;;;;;;5436801;26;20229;-75
2024/04/11 05:41:21;;;;;;;6.07;2.10;;;26.50;44.30;;;;;;5436330;26;20252;-73
2024/04/11 05:43:49;;;;;;;4.13;1.87;;;26.40;43.80;;;;;;5442407;26;20228;-75
2024/04/11 05:46:20;;;;;;;3.83;1.33;;;26.40;44.50;;;;;;5452485;26;20244;-72
2024/04/11 05:48:48;;;;;;;3.10;1.60;;;26.40;43.30;;;;;;5449663;26;20823;-73
2024/04/11 05:51:15;;;;;;;6.47;1.70;;;25.80;44.00;;;;;;5445357;26;20626;-74
2024/04/11 05:53:43;;;;;;;7.43;1.60;;;25.60;45.40;;;;;;5449610;26;20236;-74
2024/04/11 05:56:12;;;;;;;4.43;1.43;;;25.60;44.40;;;;;;5438894;26;20240;-75
2024/04/11 05:58:42;;;;;;;4.17;1.80;;;25.70;45.80;;;;;;5439703;26;20623;-75
2024/04/11 06:01:13;;;;;;;5.87;1.97;;;25.90;45.70;;;;;;5447026;26;20244;-74
2024/04/11 06:03:54;;;;;;;7.03;2.47;;;25.90;46.10;;;;;;5439728;26;20722;-73
2024/04/11 06:06:21;;;;;;;8.03;2.20;;;25.90;46.10;;;;;;5443004;26;20299;-76
2024/04/11 06:08:55;;;;;;;4.93;1.73;;;25.40;46.90;;;;;;5448344;26;20260;-76
2024/04/11 06:11:22;;;;;;;4.77;1.60;;;25.70;46.00;;;;;;5447827;26;20752;-76
2024/04/11 06:13:53;;;;;;;6.03;1.80;;;25.50;46.20;;;;;;5448788;26;20277;-74
2024/04/11 06:16:20;;;;;;;5.93;1.90;;;25.90;44.30;;;;;;5442542;26;20359;-74
2024/04/11 06:18:48;;;;;;;7.83;2.20;;;25.80;44.80;;;;;;5438523;26;20760;-74
2024/04/11 06:21:18;;;;;;;4.97;1.93;;;25.60;45.90;;;;;;5439106;26;20243;-75
2024/04/11 06:23:46;;;;;;;8.40;2.13;;;25.90;46.60;;;;;;5436799;26;20345;-74
2024/04/11 06:26:17;;;;;;;3.93;2.00;;;26.30;45.00;;;;;;5444373;26;20792;-74
2024/04/11 06:28:47;;;;;;;7.70;2.00;;;26.60;44.90;;;;;;5441638;26;20326;-73
2024/04/11 06:31:17;;;;;;;5.23;2.00;;;25.90;46.20;;;;;;5445143;26;20307;-75
2024/04/11 06:33:46;;;;;;;4.37;1.60;;;25.90;46.10;;;;;;5446961;26;20731;-75
2024/04/11 06:36:17;;;;;;;3.67;1.33;;;25.90;45.20;;;;;;5447596;26;20295;-75
2024/04/11 06:38:44;;;;;;;4.93;2.03;;;25.80;45.60;;;;;;5444510;26;20267;-74
2024/04/11 06:41:18;;;;;;;5.60;1.90;;;25.50;45.70;;;;;;5447053;26;20282;-76
2024/04/11 06:43:46;;;;;;;5.67;1.60;;;25.30;45.50;;;;;;5432886;26;20237;-74
2024/04/11 06:46:14;;;;;;;11.93;1.87;;;25.20;46.00;;;;;;5452377;26;20244;-74
2024/04/11 06:48:49;;;;;;;5.47;1.60;;;24.60;47.60;;;;;;5449102;26;20333;-77
2024/04/11 06:51:20;;;;;;;4.40;1.80;;;23.80;49.80;;;;;;5455681;26;20700;-75
2024/04/11 06:53:48;;;;;;;7.70;2.10;;;22.80;52.70;;;;;;5454311;26;20236;-75
2024/04/11 06:56:21;;;;;;;7.00;2.33;;;22.30;55.00;;;;;;5453195;26;20240;-75
2024/04/11 06:58:49;;;;;;;3.87;1.80;;;21.80;56.80;;;;;;5448837;26;20234;-76
2024/04/11 07:01:16;;;;;;;5.43;2.00;;;21.40;57.80;;;;;;5441585;26;20248;-75
2024/04/11 07:03:49;;;;;;;8.53;3.53;;;21.20;58.10;;;;;;5447129;26;20235;-75
2024/04/11 07:06:22;;;;;;;5.60;3.37;;;21.10;58.90;;;;;;5450113;26;20352;-75
2024/04/11 07:08:54;;;;;;;9.20;2.77;;;21.00;60.10;;;;;;5440599;26;20240;-76
2024/04/11 07:11:32;;;;;;;11.63;2.50;;;21.00;61.20;;;;;;5451956;26;20228;-76
2024/04/11 07:14:05;;;;;;;8.40;2.97;;;20.90;61.30;;;;;;5440863;26;20316;-75
2024/04/11 07:16:40;;;;;;;8.60;2.50;;;20.80;61.90;;;;;;5448540;26;20559;-75
2024/04/11 07:19:08;;;;;;;8.80;2.80;;;20.80;62.70;;;;;;5445032;26;20239;-75
2024/04/11 07:21:38;;;;;;;10.07;2.97;;;20.60;62.90;;;;;;5449588;26;20296;-76
2024/04/11 07:24:06;;;;;;;7.13;2.50;;;20.50;63.90;;;;;;5440806;26;20299;-75
2024/04/11 07:26:36;;;;;;;8.37;2.20;;;20.50;63.60;;;;;;5446059;26;20296;-76
2024/04/11 07:29:06;;;;;;;11.27;2.83;;;20.40;63.40;;;;;;5445539;26;20275;-76
2024/04/11 07:31:39;;;;;;;9.33;2.70;;;20.10;64.30;;;;;;5441656;26;20724;-77
2024/04/11 07:34:07;;;;;;;7.73;2.23;;;20.00;64.90;;;;;;5491015;26;20612;-76
2024/04/11 07:36:39;;;;;;;12.37;2.67;;;19.90;65.40;;;;;;5456281;26;20236;-77
2024/04/11 07:39:08;;;;;;;7.00;2.53;;;19.80;65.80;;;;;;5442194;26;20267;-76
2024/04/11 07:41:44;;;;;;;5.97;2.40;;;19.70;65.80;;;;;;5443056;26;20239;-76
2024/04/11 07:44:17;;;;;;;8.60;2.43;;;19.70;66.30;;;;;;5444613;26;20278;-75
2024/04/11 07:46:47;;;;;;;8.80;2.43;;;19.60;66.90;;;;;;5444456;26;20282;-76
2024/04/11 07:49:15;;;;;;;7.53;2.70;;;19.50;67.20;;;;;;5442634;26;20235;-76
2024/04/11 07:51:43;;;;;;;7.50;2.80;;;19.50;67.50;;;;;;5445763;26;20741;-75
2024/04/11 07:54:15;;;;;;;15.53;3.10;;;19.50;67.90;;;;;;5442076;26;20287;-75
2024/04/11 07:56:42;;;;;;;12.90;3.57;;;19.40;68.20;;;;;;5442485;26;20286;-76
2024/04/11 07:59:11;;;;;;;12.37;4.57;;;19.30;68.70;;;;;;5438960;26;20232;-77
2024/04/11 08:01:41;;;;;;;13.73;2.97;;;19.30;69.10;;;;;;5450766;26;20243;-77
2024/04/11 08:04:11;;;;;;;15.03;3.23;;;19.20;69.30;;;;;;5445859;26;20282;-75
2024/04/11 08:06:39;;;;;;;6.73;2.60;;;19.20;69.80;;;;;;5446055;26;20251;-75
2024/04/11 08:09:07;;;;;;;8.93;2.93;;;19.20;69.90;;;;;;5445930;26;20336;-75
2024/04/11 08:11:35;;;;;;;8.07;2.70;;;19.10;70.40;;;;;;5444701;26;20730;-76
2024/04/11 08:14:07;;;;;;;6.63;2.60;;;19.10;70.40;;;;;;5443791;26;20730;-77
2024/04/11 08:16:36;;;;;;;9.43;2.77;;;19.10;70.50;;;;;;5436982;26;20241;-77
2024/04/11 08:19:05;;;;;;;13.20;2.77;;;19.10;70.50;;;;;;5446696;26;20256;-78
2024/04/11 08:21:36;;;;;;;8.73;2.53;;;19.00;70.50;;;;;;5445407;26;20229;-78
2024/04/11 08:24:11;;;;;;;8.70;2.60;;;19.00;70.80;;;;;;5440072;26;20286;-76
2024/04/11 08:26:38;;;;;;;11.57;3.20;;;19.00;70.90;;;;;;5439222;26;20267;-76
2024/04/11 08:29:06;;;;;;;15.33;2.97;;;19.00;71.50;;;;;;5444145;26;20243;-75
2024/04/11 08:31:34;;;;;;;7.97;2.90;;;19.00;71.10;;;;;;5444550;26;20285;-77
2024/04/11 08:34:01;;;;;;;11.40;3.40;;;18.90;71.60;;;;;;5452964;26;20231;-75
2024/04/11 08:36:29;;;;;;;9.03;3.10;;;18.90;71.80;;;;;;5452133;26;20232;-77
2024/04/11 08:38:57;;;;;;;14.53;2.67;;;18.80;72.20;;;;;;5435382;26;20237;-75
2024/04/11 08:41:25;;;;;;;7.50;2.73;;;18.80;72.50;;;;;;5451564;26;20264;-76
2024/04/11 08:43:56;;;;;;;8.37;2.57;;;18.80;72.10;;;;;;5454208;26;20247;-77
2024/04/11 08:46:24;;;;;;;10.50;2.80;;;18.80;72.00;;;;;;5454287;26;20239;-77
2024/04/11 08:48:52;;;;;;;8.30;2.40;;;18.80;72.50;;;;;;5446917;26;20305;-74
2024/04/11 08:51:23;;;;;;;11.77;3.00;;;18.80;72.20;;;;;;5448882;26;20324;-77
2024/04/11 08:54:03;;;;;;;8.27;2.80;;;18.70;72.30;;;;;;5444556;26;20394;-75
2024/04/11 08:56:31;;;;;;;10.80;3.63;;;18.80;72.70;;;;;;5429956;26;20309;-76
2024/04/11 08:58:59;;;;;;;7.70;2.63;;;18.70;72.50;;;;;;5448552;26;20290;-74
2024/04/11 09:01:29;;;;;;;11.80;3.50;;;18.70;72.40;;;;;;5443734;26;20231;-76
2024/04/11 09:03:57;;;;;;;12.37;3.03;;;18.60;72.50;;;;;;5446987;26;20252;-75
2024/04/11 09:06:28;;;;;;;10.27;2.93;;;18.60;72.70;;;;;;5441955;26;20318;-76
2024/04/11 09:08:59;;;;;;;9.23;2.83;;;18.60;72.30;;;;;;5447208;26;20249;-77
2024/04/11 09:11:27;;;;;;;11.17;2.83;;;18.60;72.50;;;;;;5450739;26;20228;-75
2024/04/11 09:14:01;;;;;;;9.47;2.63;;;18.60;72.40;;;;;;5443392;26;20241;-75
2024/04/11 09:16:28;;;;;;;11.43;3.33;;;18.50;72.30;;;;;;5451095;26;20291;-77
2024/04/11 09:19:09;;;;;;;11.50;3.53;;;18.50;72.20;;;;;;5429104;26;20257;-76
2024/04/11 09:21:46;;;;;;;8.07;3.07;;;18.50;72.10;;;;;;5443784;26;20604;-77
2024/04/11 09:24:17;;;;;;;10.57;3.10;;;18.50;72.20;;;;;;5443675;26;20276;-77
2024/04/11 09:26:45;;;;;;;11.17;2.83;;;18.50;72.40;;;;;;5454576;26;20340;-76
2024/04/11 09:29:13;;;;;;;11.73;3.10;;;18.50;72.40;;;;;;5447603;26;20240;-76
2024/04/11 09:31:44;;;;;;;11.87;2.70;;;18.50;72.60;;;;;;5449050;26;20244;-76
2024/04/11 09:34:12;;;;;;;10.90;3.10;;;18.40;72.70;;;;;;5445245;26;20342;-76
2024/04/11 09:36:52;;;;;;;11.10;2.93;;;18.50;72.70;;;;;;5431289;26;20291;-77
2024/04/11 09:39:45;;;;;;;12.33;3.40;;;18.40;73.00;;;;;;5449864;26;20274;-77
2024/04/11 09:42:18;;;;;;;15.30;3.20;;;18.40;73.10;;;;;;5453977;26;20228;-76
2024/04/11 09:44:50;;;;;;;14.50;3.23;;;18.40;73.30;;;;;;5447658;26;20636;-78
2024/04/11 09:47:31;;;;;;;12.63;3.10;;;18.40;73.20;;;;;;5454289;26;20276;-78
2024/04/11 09:50:00;;;;;;;9.27;2.83;;;18.40;73.20;;;;;;5452512;26;20291;-78
2024/04/11 09:52:34;;;;;;;11.67;3.20;;;18.30;73.40;;;;;;5455482;26;21081;-75
2024/04/11 09:55:14;;;;;;;6.83;2.80;;;18.30;73.60;;;;;;5455544;26;20274;-77
2024/04/11 09:57:46;;;;;;;7.67;2.67;;;18.30;73.40;;;;;;5455793;26;20299;-78
2024/04/11 10:01:15;;;;;;;10.80;3.30;;;18.30;73.60;;;;;;5455596;26;20272;-77
2024/04/11 10:03:12;;;;;;;13.13;4.07;;;18.30;73.70;;;;;;5426411;26;20353;-77
2024/04/11 10:05:45;;;;;;;16.40;3.93;;;18.30;73.70;;;;;;5456525;26;20275;-78
2024/04/11 10:08:33;;;;;;;7.73;2.90;;;18.30;73.90;;;;;;5454492;26;20244;-77
2024/04/11 10:11:12;;;;;;;16.83;3.43;;;18.30;74.10;;;;;;5451530;26;20232;-78
2024/04/11 10:13:49;;;;;;;13.00;2.90;;;18.30;74.20;;;;;;5450183;26;20235;-78
2024/04/11 10:16:28;;;;;;;8.07;2.63;;;18.20;74.20;;;;;;5461182;26;20231;-78
2024/04/11 10:19:06;;;;;;;11.70;3.37;;;18.20;74.50;;;;;;5465725;26;20749;-77
2024/04/11 10:21:35;;;;;;;13.80;3.00;;;18.20;74.80;;;;;;5454884;26;20243;-77
2024/04/11 10:24:15;;;;;;;12.97;3.17;;;18.20;74.90;;;;;;5456686;26;20319;-75
2024/04/11 10:26:54;;;;;;;10.70;2.60;;;18.20;75.00;;;;;;5454367;26;20277;-76
2024/04/11 10:29:26;;;;;;;12.70;3.23;;;18.20;75.00;;;;;;5451154;26;20239;-77
2024/04/11 10:31:58;;;;;;;12.77;3.43;;;18.20;75.10;;;;;;5454426;26;20722;-76
2024/04/11 10:34:34;;;;;;;11.97;2.67;;;18.20;75.10;;;;;;5452812;26;20275;-76
2024/04/11 10:37:07;;;;;;;10.23;2.87;;;18.20;75.30;;;;;;5446871;26;20332;-77
2024/04/11 10:39:38;;;;;;;11.00;3.07;;;18.10;75.30;;;;;;5452010;26;20367;-77
2024/04/11 10:42:10;;;;;;;7.73;2.77;;;18.00;75.40;;;;;;5454582;26;20262;-76
2024/04/11 10:44:43;;;;;;;11.63;2.87;;;18.00;75.50;;;;;;5453665;26;20232;-77
2024/04/11 10:47:13;;;;;;;9.90;3.13;;;18.00;75.80;;;;;;5454519;26;20236;-78
2024/04/11 10:49:45;;;;;;;13.10;3.10;;;18.00;75.80;;;;;;5456070;26;20280;-78
2024/04/11 10:52:13;;;;;;;14.23;3.17;;;17.90;76.10;;;;;;5456781;26;20247;-78
2024/04/11 10:54:42;;;;;;;16.80;3.60;;;17.90;76.10;;;;;;5448429;26;20228;-78
2024/04/11 10:57:13;;;;;;;12.53;4.33;;;17.90;76.30;;;;;;5457251;26;20286;-78
2024/04/11 10:59:53;;;;;;;13.30;3.60;;;17.90;76.40;;;;;;5454346;26;20263;-75
2024/04/11 11:02:24;;;;;;;9.40;3.47;;;17.90;76.60;;;;;;5449081;26;20578;-77
2024/04/11 11:04:54;;;;;;;9.70;3.27;;;17.90;76.80;;;;;;5454067;26;20232;-76
2024/04/11 11:07:31;;;;;;;10.40;3.03;;;17.90;76.80;;;;;;5445390;26;20278;-77
2024/04/11 11:09:59;;;;;;;9.13;2.80;;;17.90;77.00;;;;;;5450859;26;20317;-77
2024/04/11 11:12:27;;;;;;;8.40;3.13;;;17.90;76.80;;;;;;5456460;26;20300;-77
2024/04/11 11:14:55;;;;;;;12.67;3.40;;;17.90;76.80;;;;;;5456355;26;20240;-79
2024/04/11 11:17:27;;;;;;;9.40;2.73;;;17.90;76.90;;;;;;5445860;26;20276;-78
2024/04/11 11:19:58;;;;;;;11.00;2.63;;;17.90;76.80;;;;;;5447608;26;20270;-76
2024/04/11 11:22:36;;;;;;;10.87;3.20;;;18.00;76.90;;;;;;5455391;26;20277;-79
2024/04/11 11:25:08;;;;;;;8.20;2.70;;;17.90;77.00;;;;;;5453497;26;20750;-78
2024/04/11 11:27:36;;;;;;;13.10;2.60;;;18.00;77.00;;;;;;5449541;26;20240;-76
2024/04/11 11:30:15;;;;;;;16.93;4.00;;;17.90;77.10;;;;;;5449102;26;20254;-76
2024/04/11 11:32:43;;;;;;;16.17;3.90;;;17.90;77.10;;;;;;5453425;26;20284;-76
2024/04/11 11:35:12;;;;;;;10.23;3.13;;;17.80;77.40;;;;;;5451726;26;20324;-75
2024/04/11 11:37:42;;;;;;;13.47;4.10;;;17.90;77.60;;;;;;5450117;26;20252;-76
2024/04/11 11:42:58;;;;;;;9.97;3.23;;;17.80;78.10;;;;;;5453326;26;20275;-77
2024/04/11 11:45:28;;;;;;;12.80;3.27;;;17.70;78.10;;;;;;5454509;26;20328;-75
2024/04/11 11:48:12;;;;;;;11.20;2.97;;;17.70;78.30;;;;;;5450354;26;20341;-77
2024/04/11 11:50:40;;;;;;;11.30;2.77;;;17.70;78.50;;;;;;5450046;26;20236;-76
2024/04/11 11:53:25;;;;;;;10.77;3.07;;;17.60;78.60;;;;;;5454062;26;20228;-76
2024/04/11 11:55:57;;;;;;;10.60;2.53;;;17.60;78.70;;;;;;5454289;26;20282;-76
2024/04/11 11:58:25;;;;;;;10.37;3.43;;;17.60;78.90;;;;;;5451835;26;20240;-76
2024/04/11 12:01:02;;;;;;;10.00;3.30;;;17.50;79.10;;;;;;5457086;26;20236;-75
2024/04/11 12:03:32;;;;;;;10.77;3.90;;;17.50;79.10;;;;;;5442527;26;20752;-76
2024/04/11 12:06:04;;;;;;;17.93;3.70;;;17.50;79.20;;;;;;5452349;26;20278;-78
2024/04/11 12:08:37;;;;;;;21.47;4.07;;;17.50;79.40;;;;;;5449322;26;20232;-75
2024/04/11 12:13:35;;;;;;;17.37;3.97;;;17.40;79.50;;;;;;5452151;26;20220;-75
2024/04/11 12:16:06;;;;;;;17.70;4.93;;;17.40;79.80;;;;;;5451626;26;20266;-76
2024/04/11 12:18:33;;;;;;;10.93;3.87;;;17.50;79.80;;;;;;5452586;26;20239;-76
2024/04/11 12:21:02;;;;;;;13.10;4.10;;;17.50;79.60;;;;;;5455570;26;20279;-75
2024/04/11 12:23:34;;;;;;;10.77;3.73;;;17.40;79.70;;;;;;5456034;26;20322;-76
2024/04/11 12:26:02;;;;;;;9.67;3.73;;;17.40;79.60;;;;;;5454474;26;20290;-75
2024/04/11 12:28:32;;;;;;;12.37;3.50;;;17.40;79.80;;;;;;5455756;26;20270;-76
2024/04/11 12:31:07;;;;;;;15.50;3.93;;;17.30;79.80;;;;;;5451937;26;20332;-75
2024/04/11 12:33:38;;;;;;;11.13;3.50;;;17.30;80.10;;;;;;5452453;26;20266;-75
2024/04/11 12:39:32;;;;;;;11.27;4.20;;;17.20;80.30;;;;;;5448537;26;20347;-75
2024/04/11 12:41:56;;;;;;;14.47;4.93;;;17.20;80.30;;;;;;5450689;26;20278;-75
2024/04/11 12:44:26;;;;;;;13.77;4.83;;;17.00;80.40;;;;;;5450664;26;20243;-75
2024/04/11 12:46:55;;;;;;;13.57;5.53;;;17.10;80.70;;;;;;5446069;26;20236;-76
2024/04/11 12:49:29;;;;;;;14.43;5.10;;;17.00;80.50;;;;;;5443585;26;20277;-75
2024/04/11 12:51:57;;;;;;;16.17;4.77;;;17.00;80.50;;;;;;5452773;26;20625;-76
2024/04/11 12:54:33;;;;;;;15.43;6.07;;;16.90;80.60;;;;;;5452974;26;20608;-74
2024/04/11 12:57:10;;;;;;;11.03;5.03;;;16.80;80.60;;;;;;5451568;26;20273;-76
2024/04/11 12:59:39;;;;;;;17.27;6.60;;;16.80;80.80;;;;;;5451827;26;20235;-75
2024/04/11 13:02:08;;;;;;;11.60;6.30;;;16.70;80.80;;;;;;5446788;26;20236;-75
2024/04/11 13:04:36;;;;;;;14.57;6.23;;;16.70;80.90;;;;;;5453146;26;20228;-76
2024/04/11 13:07:13;;;;;;;18.07;7.10;;;16.70;81.20;;;;;;5451930;26;20705;-77